createdAt,value
2023-03-10T00:03:23.150Z,95947.00
2023-03-10T00:08:45.828Z,95938.00
2023-03-10T00:14:07.421Z,95932.00
2023-03-10T00:19:29.066Z,95934.00
2023-03-10T00:24:50.569Z,95927.00
2023-03-10T00:30:12.541Z,95917.00
2023-03-10T00:35:34.502Z,95907.00
2023-03-10T00:41:07.633Z,95902.00
2023-03-10T00:46:30.402Z,95889.00
2023-03-10T00:51:52.120Z,95871.00
2023-03-10T00:57:13.903Z,95880.00
2023-03-10T01:02:35.773Z,95861.00
2023-03-10T01:07:57.485Z,95846.00
2023-03-10T01:13:20.271Z,95833.00
2023-03-10T01:18:44.183Z,95824.00
2023-03-10T01:24:06.967Z,95828.00
2023-03-10T01:29:28.967Z,95843.00
2023-03-10T01:34:50.489Z,95812.00
2023-03-10T01:40:16.645Z,95805.00
2023-03-10T01:45:38.495Z,95783.00
2023-03-10T01:51:00.331Z,95773.00
2023-03-10T01:56:22.122Z,95767.00
2023-03-10T02:01:44.099Z,95764.00
2023-03-10T02:07:07.808Z,95751.00
2023-03-10T02:12:29.422Z,95749.00
2023-03-10T02:17:53.312Z,95746.00
2023-03-10T02:23:22.504Z,95734.00
2023-03-10T02:28:46.955Z,95721.00
2023-03-10T02:34:09.032Z,95707.00
2023-03-10T02:39:31.229Z,95695.00
2023-03-10T02:44:55.716Z,95686.00
2023-03-10T02:50:20.272Z,95677.00
2023-03-10T02:55:41.956Z,95665.00
2023-03-10T03:01:05.379Z,95648.00
2023-03-10T03:06:31.026Z,95631.00
2023-03-10T03:11:54.843Z,95616.00
2023-03-10T03:17:16.517Z,95621.00
2023-03-10T03:22:38.740Z,95624.00
2023-03-10T03:28:00.362Z,95610.00
2023-03-10T03:33:22.493Z,95604.00
2023-03-10T03:38:44.432Z,95598.00
2023-03-10T03:44:07.189Z,95589.00
2023-03-10T03:49:30.270Z,95590.00
2023-03-10T03:54:51.960Z,95601.00
2023-03-10T04:00:22.484Z,95589.00
2023-03-10T04:05:50.362Z,95583.00
2023-03-10T04:11:13.954Z,95578.00
2023-03-10T04:16:38.845Z,95576.00
2023-03-10T04:22:01.532Z,95563.00
2023-03-10T04:27:26.281Z,95573.00
2023-03-10T04:32:49.839Z,95571.00
2023-03-10T04:38:15.080Z,95560.00
2023-03-10T04:43:37.448Z,95547.00
2023-03-10T04:48:59.438Z,95552.00
2023-03-10T04:54:21.016Z,95550.00
2023-03-10T04:59:42.741Z,95556.00
2023-03-10T05:05:05.277Z,95534.00
2023-03-10T05:10:29.139Z,95547.00
2023-03-10T05:15:50.843Z,95540.00
2023-03-10T05:21:12.763Z,95543.00
2023-03-10T05:26:35.276Z,95537.00
2023-03-10T05:31:58.554Z,95533.00
2023-03-10T05:37:25.329Z,95541.00
2023-03-10T05:42:49.197Z,95540.00
2023-03-10T05:48:12.222Z,95542.00
2023-03-10T05:53:35.300Z,95544.00
2023-03-10T05:58:58.676Z,95543.00
2023-03-10T06:04:25.760Z,95557.00
2023-03-10T06:09:47.574Z,95548.00
2023-03-10T06:15:09.690Z,95533.00
2023-03-10T06:20:31.172Z,95544.00
2023-03-10T06:26:07.026Z,95541.00
2023-03-10T06:31:28.850Z,95549.00
2023-03-10T06:36:53.106Z,95543.00
2023-03-10T06:42:14.838Z,95553.00
2023-03-10T06:47:36.614Z,95538.00
2023-03-10T06:52:58.033Z,95538.00
2023-03-10T06:58:19.566Z,95540.00
2023-03-10T07:03:43.361Z,95538.00
2023-03-10T07:09:06.325Z,95545.00
2023-03-10T07:14:28.329Z,95560.00
2023-03-10T07:19:49.800Z,95548.00
2023-03-10T07:25:12.146Z,95548.00
2023-03-10T07:30:34.644Z,95556.00
2023-03-10T07:35:56.578Z,95563.00
2023-03-10T07:41:20.106Z,95569.00
2023-03-10T07:46:41.972Z,95574.00
2023-03-10T07:52:03.778Z,95577.00
2023-03-10T07:57:25.476Z,95580.00
2023-03-10T08:02:47.117Z,95586.00
2023-03-10T08:08:09.046Z,95588.00
2023-03-10T08:13:30.979Z,95583.00
2023-03-10T08:18:54.877Z,95576.00
2023-03-10T08:24:16.678Z,95582.00
2023-03-10T08:29:38.265Z,95584.00
2023-03-10T08:35:00.209Z,95579.00
2023-03-10T08:40:22.027Z,95578.00
2023-03-10T08:45:43.948Z,95587.00
2023-03-10T08:51:07.292Z,95582.00
2023-03-10T08:56:29.451Z,95593.00
2023-03-10T09:01:51.208Z,95586.00
2023-03-10T09:07:12.695Z,95577.00
2023-03-10T09:12:37.708Z,95591.00
2023-03-10T09:18:01.591Z,95589.00
2023-03-10T09:23:23.284Z,95582.00
2023-03-10T09:28:45.065Z,95598.00
2023-03-10T09:34:08.373Z,95576.00
2023-03-10T09:39:30.243Z,95578.00
2023-03-10T09:45:06.317Z,95584.00
2023-03-10T09:50:44.842Z,95591.00
2023-03-10T09:56:19.154Z,95579.00
2023-03-10T10:01:44.508Z,95592.00
2023-03-10T10:07:16.111Z,95598.00
2023-03-10T10:12:37.749Z,95592.00
2023-03-10T10:18:25.558Z,95596.00
2023-03-10T10:23:53.106Z,95594.00
2023-03-10T10:29:17.892Z,95596.00
2023-03-10T10:34:47.199Z,95592.00
2023-03-10T10:40:27.243Z,95598.00
2023-03-10T10:46:06.966Z,95578.00
2023-03-10T10:51:29.711Z,95583.00
2023-03-10T10:56:58.681Z,95577.00
2023-03-10T11:02:31.990Z,95563.00
2023-03-10T11:07:53.853Z,95568.00
2023-03-10T11:13:29.483Z,95570.00
2023-03-10T11:19:00.293Z,95559.00
2023-03-10T11:24:21.883Z,95551.00
2023-03-10T11:29:55.515Z,95552.00
2023-03-10T11:35:25.586Z,95540.00
2023-03-10T11:41:00.009Z,95540.00
2023-03-10T11:46:35.543Z,95518.00
2023-03-10T11:52:05.572Z,95521.00
2023-03-10T11:57:33.162Z,95524.00
2023-03-10T12:03:19.815Z,95512.00
2023-03-10T12:08:42.375Z,95500.00
2023-03-10T12:14:04.273Z,95498.00
2023-03-10T12:19:25.596Z,95493.00
2023-03-10T12:24:48.299Z,95477.00
2023-03-10T12:30:48.954Z,95484.00
2023-03-10T12:36:15.421Z,95495.00
2023-03-10T12:42:14.808Z,95472.00
2023-03-10T12:48:00.300Z,95467.00
2023-03-10T12:53:46.229Z,95453.00
2023-03-10T12:59:22.330Z,95437.00
2023-03-10T13:04:44.588Z,95438.00
2023-03-10T13:10:07.069Z,95453.00
2023-03-10T13:15:34.016Z,95448.00
2023-03-10T13:20:55.578Z,95459.00
2023-03-10T13:26:18.243Z,95510.00
2023-03-10T13:31:40.278Z,95543.00
2023-03-10T13:37:08.248Z,95553.00
2023-03-10T13:42:43.432Z,95557.00
2023-03-10T13:48:06.430Z,95565.00
2023-03-10T13:53:28.391Z,95551.00
2023-03-10T13:58:51.929Z,95544.00
2023-03-10T14:04:18.798Z,95536.00
2023-03-10T14:09:41.044Z,95538.00
2023-03-10T14:15:20.691Z,95530.00
2023-03-10T14:20:44.753Z,95533.00
2023-03-10T14:26:15.167Z,95517.00
2023-03-10T14:31:36.584Z,95509.00
2023-03-10T14:36:58.338Z,95497.00
2023-03-10T14:42:30.867Z,95486.00
2023-03-10T14:47:53.874Z,95489.00
2023-03-10T14:53:18.409Z,95474.00
2023-03-10T14:58:54.288Z,95483.00
2023-03-10T15:04:16.720Z,95480.00
2023-03-10T15:09:38.454Z,95485.00
2023-03-10T15:15:00.166Z,95484.00
2023-03-10T15:20:24.550Z,95476.00
2023-03-10T15:25:46.718Z,95485.00
2023-03-10T15:31:08.384Z,95470.00
2023-03-10T15:36:30.049Z,95475.00
2023-03-10T15:41:51.778Z,95480.00
2023-03-10T15:47:13.424Z,95487.00
2023-03-10T15:52:35.027Z,95473.00
2023-03-10T15:57:57.858Z,95480.00
2023-03-10T16:03:19.624Z,95478.00
2023-03-10T16:08:41.969Z,95474.00
2023-03-10T16:14:03.906Z,95470.00
2023-03-10T16:19:25.999Z,95471.00
2023-03-10T16:24:47.767Z,95477.00
2023-03-10T16:30:10.745Z,95475.00
2023-03-10T16:35:32.609Z,95474.00
2023-03-10T16:40:54.620Z,95460.00
2023-03-10T16:46:25.724Z,95466.00
2023-03-10T16:51:48.640Z,95467.00
2023-03-10T16:57:12.381Z,95473.00
2023-03-10T17:02:34.364Z,95474.00
2023-03-10T17:08:02.478Z,95472.00
2023-03-10T17:13:24.103Z,95469.00
2023-03-10T17:18:46.195Z,95471.00
2023-03-10T17:24:09.376Z,95463.00
2023-03-10T17:29:31.485Z,95461.00
2023-03-10T17:34:53.855Z,95461.00
2023-03-10T17:40:17.347Z,95463.00
2023-03-10T17:45:38.910Z,95452.00
2023-03-10T17:51:01.260Z,95452.00
2023-03-10T17:56:23.562Z,95448.00
2023-03-10T18:01:46.370Z,95447.00
2023-03-10T18:07:08.035Z,95447.00
2023-03-10T18:12:29.573Z,95444.00
2023-03-10T18:17:51.197Z,95437.00
2023-03-10T18:23:12.797Z,95433.00
2023-03-10T18:28:35.118Z,95428.00
2023-03-10T18:33:56.911Z,95431.00
2023-03-10T18:39:18.433Z,95434.00
2023-03-10T18:44:40.454Z,95418.00
2023-03-10T18:50:01.870Z,95418.00
2023-03-10T18:55:23.432Z,95410.00
2023-03-10T19:00:45.217Z,95409.00
2023-03-10T19:06:07.849Z,95402.00
2023-03-10T19:11:37.175Z,95397.00
2023-03-10T19:16:59.093Z,95398.00
2023-03-10T19:22:20.796Z,95394.00
2023-03-10T19:27:42.348Z,95388.00
2023-03-10T19:33:04.278Z,95393.00
2023-03-10T19:38:27.570Z,95388.00
2023-03-10T19:43:50.770Z,95387.00
2023-03-10T19:49:12.260Z,95404.00
2023-03-10T19:54:34.104Z,95413.00
2023-03-10T19:59:55.463Z,95428.00
2023-03-10T20:05:17.273Z,95416.00
2023-03-10T20:10:38.942Z,95432.00
2023-03-10T20:16:00.653Z,95425.00
2023-03-10T20:21:22.407Z,95433.00
2023-03-10T20:26:44.513Z,95429.00
2023-03-10T20:32:07.954Z,95441.00
2023-03-10T20:37:29.619Z,95439.00
2023-03-10T20:42:52.861Z,95421.00
2023-03-10T20:48:14.415Z,95432.00
2023-03-10T20:53:39.234Z,95429.00
2023-03-10T20:59:01.932Z,95429.00
2023-03-10T21:04:23.712Z,95420.00
2023-03-10T21:09:45.604Z,95421.00
2023-03-10T21:15:08.551Z,95425.00
2023-03-10T21:20:29.964Z,95429.00
2023-03-10T21:25:51.583Z,95422.00
2023-03-10T21:31:15.274Z,95434.00
2023-03-10T21:36:36.869Z,95432.00
2023-03-10T21:41:58.444Z,95432.00
2023-03-10T21:47:21.503Z,95444.00
2023-03-10T21:52:43.429Z,95452.00
2023-03-10T21:58:05.777Z,95464.00
2023-03-10T22:03:27.668Z,95445.00
2023-03-10T22:08:49.526Z,95461.00
2023-03-10T22:14:11.907Z,95438.00
2023-03-10T22:19:34.082Z,95447.00
2023-03-10T22:24:55.586Z,95451.00
2023-03-10T22:30:17.412Z,95440.00
2023-03-10T22:35:39.708Z,95445.00
2023-03-10T22:41:01.570Z,95458.00
2023-03-10T22:46:23.845Z,95463.00
2023-03-10T22:51:45.682Z,95508.00
2023-03-10T22:57:07.351Z,95524.00
2023-03-10T23:02:28.736Z,95570.00
2023-03-10T23:07:50.523Z,95619.00
2023-03-10T23:13:18.669Z,95653.00
2023-03-10T23:18:40.706Z,95651.00
2023-03-10T23:24:02.456Z,95669.00
2023-03-10T23:29:24.029Z,95672.00
2023-03-10T23:34:45.623Z,95684.00
2023-03-10T23:40:11.781Z,95688.00
2023-03-10T23:45:35.412Z,95708.00
2023-03-10T23:50:57.543Z,95720.00
2023-03-10T23:56:19.248Z,95756.00
